Latest Weather Observations for Cape Jaffa

IDS60801

Issued at 8:21 pm CST Wednesday 19 September 2018 (issued every 10 minutes, with the page automatically refreshed every 10 minutes)

About weather observations | Map of weather stations | Latest weather observations for SA | Other Formats
Station Details ID: 026095 Name: THE LIMESTONE Lat: -36.97 Lon: 139.72 Height: 17.0 m
Data from the previous 72 hours. | See also: Recent months at Cape Jaffa
Date/Time
CST
Temp
°C
App
Temp
°C
Dew
Point
°C
Rel
Hum
%
Delta-T
°C
Wind Press
QNH
hPa
Press
MSL
hPa
Rain since
9am
mm
Dir  Spd
km/h
Gust
km/h
Spd
kts
Gust
kts
19/08:00pm 9.2 5.8 5.8 79 1.6 W 13 17 7 9 1018.9 1018.9 1.6
19/07:30pm 8.9 6.2 5.6 80 1.5 W 9 13 5 7 1018.7 1018.7 1.6
19/07:00pm 8.6 5.9 5.4 80 1.4 W 9 13 5 7 1018.6 1018.6 1.6
19/06:30pm 8.6 5.4 5.2 79 1.5 W 11 15 6 8 1018.3 1018.3 1.6
19/06:00pm 9.4 5.5 5.2 75 1.9 W 15 20 8 11 1018.0 1018.0 1.6
19/05:30pm 10.4 7.3 5.6 72 2.2 W 11 15 6 8 1017.7 1017.7 1.6
19/05:00pm 10.9 7.6 6.5 74 2.1 WSW 13 15 7 8 1017.6 1017.6 1.6
19/04:30pm 10.7 8.1 7.6 81 1.5 WSW 11 15 6 8 1017.5 1017.5 1.6
19/04:00pm 9.8 2.8 6.0 77 1.8 WSW 32 43 17 23 1017.4 1017.4 0.8
19/03:45pm 10.7 4.4 5.7 71 2.3 WSW 28 48 15 26 1017.2 1017.2 0.8
19/03:30pm 12.4 7.7 6.2 66 2.9 WSW 20 26 11 14 1017.1 1017.1 0.8
19/03:00pm 13.3 9.0 6.9 65 3.1 WSW 19 24 10 13 1017.0 1017.0 0.8
19/02:30pm 12.9 7.9 6.3 64 3.1 WSW 22 28 12 15 1016.9 1016.9 0.8
19/02:00pm 13.6 8.8 7.2 65 3.1 WSW 22 32 12 17 1016.8 1016.8 0.8
19/01:30pm 12.3 6.0 5.9 65 3.0 WSW 28 37 15 20 1016.8 1016.8 0.8
19/01:00pm 13.3 7.9 6.4 63 3.3 WSW 24 30 13 16 1016.8 1016.8 0.8
19/12:30pm 13.1 7.8 6.7 65 3.1 SW 24 32 13 17 1016.7 1016.7 0.8
19/12:00pm 12.9 7.2 6.7 66 3.0 WSW 26 32 14 17 1016.7 1016.7 0.8
19/11:30am 12.6 8.8 7.5 71 2.5 WSW 17 28 9 15 1016.8 1016.8 0.8
19/11:00am 10.2 5.4 7.4 83 1.3 WSW 22 37 12 20 1016.9 1016.9 0.8
19/10:30am 11.8 8.8 7.7 76 2.0 W 13 20 7 11 1016.8 1016.8 0.4
19/10:00am 10.8 3.3 6.4 74 2.1 WSW 35 46 19 25 1016.5 1016.5 0.0
19/09:30am 12.3 6.4 5.9 65 3.0 WSW 26 33 14 18 1016.3 1016.3 0.0
19/09:00am 12.1 6.1 5.5 64 3.1 WSW 26 33 14 18 1016.0 1016.0 4.4
19/08:30am 11.4 5.4 5.3 66 2.8 WSW 26 35 14 19 1015.7 1015.7 4.4
19/08:00am 10.9 7.2 6.1 72 2.2 SW 15 20 8 11 1015.4 1015.4 4.4
19/07:30am 8.8 3.1 4.8 76 1.8 SW 24 37 13 20 1015.1 1015.1 4.4
19/07:00am 10.3 5.1 5.5 72 2.2 WSW 22 32 12 17 1014.6 1014.6 4.2
19/06:30am 9.8 4.0 4.4 69 2.4 SW 24 32 13 17 1014.1 1014.1 4.2
19/06:00am 9.8 3.9 5.6 75 1.9 WSW 26 35 14 19 1013.8 1013.8 4.2
19/05:30am 9.7 3.1 4.1 68 2.5 WSW 28 33 15 18 1013.5 1013.5 4.2
19/05:00am 9.9 2.9 4.3 68 2.5 WSW 30 41 16 22 1013.1 1013.1 4.2
19/04:30am 9.7 3.1 4.1 68 2.5 WSW 28 37 15 20 1013.0 1013.0 4.2
19/04:00am 9.9 3.1 5.1 72 2.2 SW 30 39 16 21 1012.7 1012.7 4.2
19/03:30am 9.7 2.2 4.5 70 2.3 WSW 33 44 18 24 1012.5 1012.5 4.2
19/03:14am 9.8 2.6 4.8 71 2.2 WSW 32 50 17 27 1012.3 1012.3 4.2
19/03:00am 9.8 2.3 4.4 69 2.4 WSW 33 43 18 23 1012.3 1012.3 4.2
19/02:30am 9.7 2.6 5.3 74 2.0 SW 32 41 17 22 1012.3 1012.3 4.2
19/02:00am 9.7 1.8 4.3 69 2.4 WSW 35 43 19 23 1012.5 1012.5 4.2
19/01:30am 9.4 1.1 4.0 69 2.4 WSW 37 48 20 26 1012.7 1012.7 4.2
19/01:06am 9.3 2.4 4.5 72 2.1 WSW 30 50 16 27 1012.6 1012.6 4.2
19/01:00am 9.2 2.8 5.2 76 1.8 WSW 28 41 15 22 1012.8 1012.8 4.2
19/12:30am 9.6 1.8 4.8 72 2.1 WSW 35 52 19 28 1012.6 1012.6 4.2
19/12:00am 9.2 1.3 4.6 73 2.0 WSW 35 54 19 29 1012.5 1012.5 4.2
 
Date/Time
CST
Temp
°C
App
Temp
°C
Dew
Point
°C
Rel
Hum
%
Delta-T
°C
Wind Press
QNH
hPa
Press
MSL
hPa
Rain since
9am
mm
Dir  Spd
km/h
Gust
km/h
Spd
kts
Gust
kts
18/11:31pm 9.1 1.2 4.3 72 2.1 WSW 35 54 19 29 1012.4 1012.4 4.2
18/11:30pm 9.1 0.9 4.5 73 2.0 WSW 37 54 20 29 1012.3 1012.3 4.2
18/11:24pm 8.5 -0.6 3.9 73 2.0 WSW 41 59 22 32 1012.4 1012.4 4.2
18/11:00pm 9.6 1.7 4.4 70 2.3 W 35 52 19 28 1012.4 1012.4 4.0
18/10:30pm 9.2 1.6 4.0 70 2.3 W 33 44 18 24 1012.2 1012.2 4.0
18/10:00pm 9.2 0.9 4.2 71 2.2 W 37 46 20 25 1012.1 1012.1 4.0
18/09:30pm 8.3 3.0 5.2 81 1.4 W 22 32 12 17 1012.1 1012.1 4.0
18/09:13pm 8.0 1.5 4.8 80 1.4 W 28 48 15 26 1012.2 1012.2 4.0
18/09:00pm 7.2 -0.7 4.5 83 1.2 WNW 35 59 19 32 1012.3 1012.3 3.8
18/08:56pm 8.3 1.9 5.2 81 1.4 WNW 28 57 15 31 1012.2 1012.2 2.8
18/08:30pm 9.4 3.3 4.8 73 2.1 W 26 33 14 18 1011.8 1011.8 2.6
18/08:00pm 9.6 2.8 5.0 73 2.1 W 30 43 16 23 1011.6 1011.6 2.6
18/07:34pm 9.2 1.6 5.6 78 1.6 W 35 56 19 30 1011.4 1011.4 2.6
18/07:30pm 9.2 0.7 5.2 76 1.8 W 39 56 21 30 1011.3 1011.3 2.6
18/07:10pm 10.1 3.0 6.3 77 1.8 W 33 59 18 32 1010.9 1010.9 2.4
18/07:00pm 9.6 4.8 5.4 75 1.9 WNW 20 32 11 17 1010.7 1010.7 2.4
18/06:46pm 10.4 3.1 4.5 67 2.6 WNW 32 54 17 29 1010.9 1010.9 1.6
18/06:30pm 11.1 3.5 4.1 62 3.1 W 33 43 18 23 1010.5 1010.5 1.6
18/06:00pm 11.1 4.6 4.8 65 2.9 WNW 28 43 15 23 1010.5 1010.5 1.6
18/05:30pm 11.0 4.5 4.9 66 2.8 W 28 41 15 22 1010.3 1010.3 1.6
18/05:00pm 11.9 4.1 5.1 63 3.1 WNW 35 43 19 23 1010.1 1010.1 1.6
18/04:30pm 12.4 6.3 6.5 67 2.8 WNW 28 41 15 22 1009.9 1009.9 1.6
18/04:03pm 11.9 4.7 6.0 67 2.8 W 33 54 18 29 1009.8 1009.8 1.4
18/04:00pm 12.0 4.9 5.6 65 3.0 W 32 44 17 24 1009.7 1009.7 1.4
18/03:30pm 12.3 5.6 7.2 71 2.5 W 32 43 17 23 1009.5 1009.5 1.4
18/03:00pm 12.2 4.6 5.8 65 3.0 WNW 35 48 19 26 1009.4 1009.4 1.4
18/02:31pm 12.6 5.3 8.9 78 1.9 WNW 37 56 20 30 1009.4 1009.4 1.4
18/02:30pm 12.3 5.0 8.6 78 1.8 WNW 37 50 20 27 1009.4 1009.4 1.4
18/02:00pm 13.7 6.6 7.9 68 2.9 WNW 35 48 19 26 1009.3 1009.3 1.4
18/01:30pm 11.8 5.6 7.7 76 2.0 WNW 30 43 16 23 1009.4 1009.4 1.4
18/01:00pm 12.4 6.6 8.1 75 2.1 NW 28 37 15 20 1009.4 1009.4 1.4
18/12:30pm 11.6 5.9 8.5 81 1.5 WNW 28 37 15 20 1009.7 1009.7 1.4
18/12:15pm 12.1 6.3 7.8 75 2.1 WNW 28 48 15 26 1009.8 1009.8 1.0
18/12:00pm 12.9 8.2 9.2 78 1.9 WNW 24 33 13 18 1009.7 1009.7 1.0
18/11:30am 11.5 7.6 9.4 87 1.1 WNW 20 30 11 16 1009.9 1009.9 1.0
18/11:00am 10.9 3.8 8.0 82 1.4 W 35 54 19 29 1010.4 1010.4 0.0
18/10:58am 11.1 3.9 7.6 79 1.7 WNW 35 54 19 29 1010.3 1010.3 0.0
18/10:52am 12.9 6.8 8.2 73 2.3 NW 30 54 16 29 1010.1 1010.1 0.0
18/10:30am 12.9 6.6 7.6 70 2.6 WNW 30 43 16 23 1009.8 1009.8 0.0
18/10:00am 15.0 8.8 7.8 62 3.6 NW 30 39 16 21 1009.8 1009.8 0.0
18/09:30am 14.5 8.4 6.6 59 3.8 WNW 28 44 15 24 1009.9 1009.9 0.0
18/09:00am 14.1 8.6 7.4 64 3.3 WNW 26 37 14 20 1009.8 1009.8 0.0
18/08:30am 13.4 7.7 6.5 63 3.3 WNW 26 35 14 19 1009.7 1009.7 0.0
18/08:00am 12.8 7.3 5.9 63 3.2 WNW 24 35 13 19 1009.5 1009.5 0.0
18/07:30am 12.0 5.3 5.4 64 3.1 W 30 41 16 22 1009.5 1009.5 0.0
18/07:00am 11.4 4.7 5.7 68 2.6 W 30 39 16 21 1009.1 1009.1 0.0
18/06:30am 12.0 7.0 8.1 77 1.9 W 24 35 13 19 1008.5 1008.5 0.0
18/06:00am 12.1 6.3 8.0 76 2.0 W 28 37 15 20 1008.3 1008.3 0.0
18/05:30am 12.1 6.0 8.2 77 1.9 WSW 30 39 16 21 1008.1 1008.1 0.0
18/05:00am 12.5 6.7 9.5 82 1.5 WSW 30 37 16 20 1007.6 1007.6 0.0
18/04:30am 13.4 10.3 10.4 82 1.6 NW 17 22 9 12 1007.0 1007.0 0.0
18/04:00am 13.0 9.4 9.8 81 1.6 NW 19 24 10 13 1006.8 1006.8 0.0
18/03:30am 13.2 8.3 8.5 73 2.4 NNW 24 30 13 16 1006.9 1006.9 0.0
18/03:00am 13.4 7.4 7.0 65 3.1 NNW 28 37 15 20 1006.9 1006.9 0.0
18/02:30am 13.6 7.0 6.0 60 3.6 NNW 30 37 16 20 1007.1 1007.1 0.0
18/02:00am 13.2 6.2 5.9 61 3.4 N 32 39 17 21 1006.7 1006.7 0.0
18/01:30am 13.3 6.2 5.7 60 3.6 N 32 41 17 22 1006.6 1006.6 0.0
18/01:00am 13.0 6.0 5.9 62 3.3 N 32 39 17 21 1006.8 1006.8 0.0
18/12:30am 12.8 6.7 6.4 65 3.1 NNE 28 35 15 19 1007.4 1007.4 0.0
18/12:00am 12.1 6.8 6.6 69 2.6 NNE 24 32 13 17 1007.8 1007.8 0.0
 
Date/Time
CST
Temp
°C
App
Temp
°C
Dew
Point
°C
Rel
Hum
%
Delta-T
°C
Wind Press
QNH
hPa
Press
MSL
hPa
Rain since
9am
mm
Dir  Spd
km/h
Gust
km/h
Spd
kts
Gust
kts
17/11:30pm 11.9 6.9 6.6 70 2.5 NNE 22 28 12 15 1008.3 1008.3 0.0
17/11:00pm 12.2 7.3 7.1 71 2.5 NNE 22 28 12 15 1008.8 1008.8 0.0
17/10:30pm 12.6 7.9 7.7 72 2.4 NNE 22 28 12 15 1009.3 1009.3 0.0
17/10:00pm 12.8 8.1 7.9 72 2.4 NNE 22 26 12 14 1009.7 1009.7 0.0
17/09:30pm 11.9 7.7 7.6 75 2.1 NNE 19 22 10 12 1010.1 1010.1 0.0
17/09:00pm 11.6 8.1 7.3 75 2.1 NNE 15 17 8 9 1010.5 1010.5 0.0
17/08:30pm 12.1 8.2 7.2 72 2.4 N 17 19 9 10 1010.9 1010.9 0.0
17/08:00pm 12.6 9.1 7.1 69 2.7 NNW 15 17 8 9 1011.1 1011.1 0.0
17/07:30pm 13.1 8.8 6.9 66 3.0 NNW 19 24 10 13 1011.3 1011.3 0.0
17/07:00pm 13.1 8.7 6.7 65 3.1 NNW 19 22 10 12 1011.2 1011.2 0.0
17/06:30pm 12.5 9.4 7.2 70 2.6 NNW 13 17 7 9 1011.3 1011.3 0.0
17/06:00pm 13.1 8.6 6.9 66 3.0 NNW 20 24 11 13 1011.2 1011.2 0.0
17/05:30pm 13.1 9.5 6.9 66 3.0 NNW 15 20 8 11 1011.3 1011.3 0.0
17/05:00pm 14.6 11.3 7.9 64 3.3 NNW 15 20 8 11 1011.5 1011.5 0.0
17/04:30pm 15.1 10.6 6.9 58 4.0 NNW 20 30 11 16 1011.9 1011.9 0.0
17/04:00pm 15.6 10.2 6.3 54 4.5 NNW 24 30 13 16 1012.3 1012.3 0.0
17/03:30pm 15.9 9.9 5.5 50 5.0 NNW 26 33 14 18 1012.7 1012.7 0.0
17/03:00pm 15.3 10.2 7.6 60 3.8 NNW 24 33 13 18 1013.2 1013.2 0.0
17/02:30pm 15.7 9.6 6.7 55 4.4 N 28 39 15 21 1013.7 1013.7 0.0
17/02:00pm 16.6 10.7 7.3 54 4.6 N 28 35 15 19 1013.9 1013.9 0.0
17/01:30pm 16.0 9.6 7.0 55 4.4 N 30 41 16 22 1014.5 1014.5 0.0
17/01:00pm 16.0 8.7 7.0 55 4.4 N 35 46 19 25 1014.8 1014.8 0.0
17/12:30pm 16.1 8.9 7.6 57 4.2 N 35 46 19 25 1015.6 1015.6 0.0
17/12:00pm 15.6 7.6 7.6 59 4.0 N 39 48 21 26 1016.1 1016.1 0.0
17/11:30am 15.0 7.2 6.8 58 4.0 N 37 46 20 25 1016.6 1016.6 0.0
17/11:00am 14.3 6.3 7.4 63 3.4 N 39 46 21 25 1017.1 1017.1 0.0
17/10:30am 13.6 6.3 7.4 66 3.0 N 35 44 19 24 1017.6 1017.6 0.0
17/10:00am 13.0 6.2 7.7 70 2.6 N 33 43 18 23 1018.1 1018.1 0.0
17/09:30am 12.3 5.3 6.8 69 2.6 N 33 41 18 22 1018.5 1018.5 0.0
17/09:00am 12.1 4.8 7.0 71 2.4 N 35 43 19 23 1018.9 1018.9 0.4
17/08:30am 11.6 5.3 7.3 75 2.1 N 30 37 16 20 1019.1 1019.1 0.4
17/08:00am 10.9 4.0 6.6 75 2.0 N 32 39 17 21 1019.2 1019.2 0.4
17/07:30am 10.9 4.9 7.0 77 1.8 N 28 35 15 19 1019.1 1019.1 0.4
17/07:00am 10.3 4.7 7.0 80 1.6 N 26 33 14 18 1018.9 1018.9 0.4
17/06:30am 10.0 4.4 7.1 82 1.4 N 26 33 14 18 1019.1 1019.1 0.4
17/06:00am 10.2 4.3 7.3 82 1.4 N 28 33 15 18 1019.0 1019.0 0.4
17/05:30am 10.5 4.3 7.7 83 1.3 N 30 39 16 21 1018.9 1018.9 0.4
17/05:00am 11.0 5.3 8.4 84 1.3 N 28 35 15 19 1018.9 1018.9 0.4
17/04:30am 11.4 4.9 6.5 72 2.3 N 30 37 16 20 1019.0 1019.0 0.4
17/04:00am 11.3 6.4 6.8 74 2.1 NNW 22 30 12 16 1019.1 1019.1 0.4
17/03:30am 11.7 6.5 7.4 75 2.1 NNW 24 33 13 18 1019.2 1019.2 0.4
17/03:00am 11.6 6.7 4.3 61 3.3 NW 19 28 10 15 1019.4 1019.4 0.4
17/02:30am 11.6 6.7 5.0 64 3.0 NNW 20 32 11 17 1019.4 1019.4 0.4
17/02:00am 11.5 5.7 4.3 61 3.2 NW 24 35 13 19 1019.8 1019.8 0.4
17/01:30am 11.5 6.2 6.6 72 2.3 NNW 24 32 13 17 1020.3 1020.3 0.4
17/01:00am 11.5 7.6 7.0 74 2.1 NW 17 22 9 12 1020.8 1020.8 0.4
17/12:30am 11.2 7.0 7.3 77 1.9 NNW 19 24 10 13 1021.1 1021.1 0.4
17/12:00am 11.3 7.5 7.6 78 1.8 NW 17 22 9 12 1021.2 1021.2 0.4
 
Date/Time
CST
Temp
°C
App
Temp
°C
Dew
Point
°C
Rel
Hum
%
Delta-T
°C
Wind Press
QNH
hPa
Press
MSL
hPa
Rain since
9am
mm
Dir  Spd
km/h
Gust
km/h
Spd
kts
Gust
kts
16/11:30pm 10.8 7.5 8.0 83 1.4 NNW 15 19 8 10 1021.7 1021.7 0.4
16/11:00pm 10.7 6.0 7.8 82 1.4 NNW 22 30 12 16 1022.0 1022.0 0.4
16/10:30pm 10.5 6.8 7.9 84 1.3 NNW 17 24 9 13 1022.2 1022.2 0.4
16/10:00pm 10.1 6.3 7.5 84 1.2 NW 17 24 9 13 1022.8 1022.8 0.2
16/09:30pm 11.3 7.4 7.2 76 2.0 NNW 17 20 9 11 1022.7 1022.7 0.0
16/09:00pm 11.4 7.2 7.3 76 2.0 NNW 19 22 10 12 1022.8 1022.8 0.0
16/08:30pm 11.3 7.6 6.4 72 2.3 NW 15 20 8 11 1022.7 1022.7 0.0

Other Formats:

Comma delimited format used in spreadsheet applications
http://www.bom.gov.au/fwo/IDS60801/IDS60801.94813.axf

JavaScript Object Notation format (JSON) in row-major order
http://www.bom.gov.au/fwo/IDS60801/IDS60801.94813.json